Time;durP1;ratioP1;P1;durP2;ratioP2;P2;SDS_P1;SDS_P2;PMS_P1;PMS_P2;Temp;Humidity;BMP_temperature;BMP_pressure;BME280_temperature;BME280_humidity;BME280_pressure;Samples;Min_cycle;Max_cycle;Signal;HPM_P1;HPM_P2
2021/01/30 00:00:20;;;;;;;;;107.25;93.00;;;;;;;;5071701;28;8945;-67
2021/01/30 00:02:46;;;;;;;;;105.50;91.75;;;;;;;;5071138;28;8929;-68
2021/01/30 00:05:12;;;;;;;;;104.25;85.00;;;;;;;;5071521;28;8898;-68
2021/01/30 00:07:39;;;;;;;;;105.75;89.75;;;;;;;;5071331;28;8946;-67
2021/01/30 00:10:05;;;;;;;;;100.50;85.25;;;;;;;;5070879;28;8874;-67
2021/01/30 00:12:31;;;;;;;;;37.50;14.00;;;;;;;;5071713;28;8942;-68
2021/01/30 00:14:57;;;;;;;;;102.50;87.00;;;;;;;;5071010;28;8836;-68
2021/01/30 00:17:24;;;;;;;;;106.25;83.50;;;;;;;;5071248;28;8890;-68
2021/01/30 00:19:50;;;;;;;;;103.25;85.50;;;;;;;;5070883;28;9059;-68
2021/01/30 00:22:17;;;;;;;;;93.75;75.00;;;;;;;;5071066;28;9568;-68
2021/01/30 00:24:43;;;;;;;;;99.50;78.25;;;;;;;;5070790;28;8831;-68
2021/01/30 00:27:10;;;;;;;;;103.25;87.00;;;;;;;;5070897;28;8832;-68
2021/01/30 00:29:36;;;;;;;;;101.50;79.50;;;;;;;;5070788;28;8971;-68
2021/01/30 00:32:02;;;;;;;;;105.25;89.50;;;;;;;;5070787;28;8823;-68
2021/01/30 00:34:30;;;;;;;;;101.25;84.25;;;;;;;;5070835;28;8821;-68
2021/01/30 00:36:56;;;;;;;;;98.25;78.00;;;;;;;;5070619;28;8920;-67
2021/01/30 00:39:23;;;;;;;;;106.75;82.00;;;;;;;;5070649;28;9069;-68
2021/01/30 00:41:49;;;;;;;;;102.25;86.25;;;;;;;;5070351;28;8846;-68
2021/01/30 00:44:15;;;;;;;;;106.75;85.75;;;;;;;;5070688;28;8961;-68
2021/01/30 00:46:41;;;;;;;;;104.75;85.00;;;;;;;;5070365;28;8994;-68
2021/01/30 00:49:07;;;;;;;;;97.00;73.25;;;;;;;;5070286;28;8847;-68
2021/01/30 00:51:33;;;;;;;;;102.50;84.25;;;;;;;;5070652;28;8968;-68
2021/01/30 00:53:59;;;;;;;;;105.25;88.00;;;;;;;;5066206;28;8974;-68
2021/01/30 00:56:25;;;;;;;;;104.50;85.00;;;;;;;;5070517;28;9008;-68
2021/01/30 00:58:51;;;;;;;;;105.00;88.50;;;;;;;;5069689;28;8934;-68
2021/01/30 01:01:18;;;;;;;;;105.50;84.50;;;;;;;;5070307;28;8847;-68
2021/01/30 01:03:44;;;;;;;;;100.50;82.50;;;;;;;;5070094;28;9733;-69
2021/01/30 01:06:09;;;;;;;;;104.00;85.25;;;;;;;;5070100;28;8972;-68
2021/01/30 01:08:36;;;;;;;;;104.00;85.00;;;;;;;;5070118;28;8828;-68
2021/01/30 01:11:03;;;;;;;;;100.75;82.75;;;;;;;;5070256;28;8852;-68
2021/01/30 01:13:29;;;;;;;;;96.50;76.50;;;;;;;;5066447;28;8962;-68
2021/01/30 01:15:55;;;;;;;;;106.25;89.50;;;;;;;;5069943;28;8839;-67
2021/01/30 01:18:21;;;;;;;;;100.75;81.00;;;;;;;;5070135;28;8973;-68
2021/01/30 01:20:47;;;;;;;;;101.25;81.75;;;;;;;;5069835;28;8927;-67
2021/01/30 01:23:13;;;;;;;;;105.25;83.25;;;;;;;;5069940;28;8857;-68
2021/01/30 01:25:40;;;;;;;;;98.75;76.50;;;;;;;;5070173;28;9017;-68
2021/01/30 01:28:06;;;;;;;;;101.50;80.50;;;;;;;;5069617;28;8873;-68
2021/01/30 01:30:32;;;;;;;;;104.00;83.75;;;;;;;;5070001;28;8824;-68
2021/01/30 01:32:58;;;;;;;;;98.75;77.75;;;;;;;;5069773;28;8839;-68
2021/01/30 01:35:25;;;;;;;;;101.75;81.50;;;;;;;;5069753;28;8967;-69
2021/01/30 01:37:52;;;;;;;;;106.00;89.25;;;;;;;;5069557;28;8948;-69
2021/01/30 01:40:20;;;;;;;;;103.00;82.00;;;;;;;;5070014;28;8827;-69
2021/01/30 01:42:48;;;;;;;;;104.00;83.00;;;;;;;;5069685;28;8967;-69
2021/01/30 01:45:14;;;;;;;;;102.75;84.50;;;;;;;;5069971;28;8865;-68
2021/01/30 01:47:43;;;;;;;;;106.25;86.00;;;;;;;;5069576;28;8828;-68
2021/01/30 01:50:28;;;;;;;;;103.00;84.00;;;;;;;;5069674;28;8835;-69
2021/01/30 01:52:57;;;;;;;;;101.25;86.25;;;;;;;;5069562;28;8842;-68
2021/01/30 01:55:23;;;;;;;;;92.00;71.75;;;;;;;;5069857;28;8966;-68
2021/01/30 01:57:51;;;;;;;;;102.50;80.25;;;;;;;;5069252;28;8867;-69
2021/01/30 02:00:18;;;;;;;;;101.75;81.75;;;;;;;;5069677;28;8996;-69
2021/01/30 02:02:47;;;;;;;;;95.75;73.75;;;;;;;;5069243;28;8971;-68
2021/01/30 02:05:17;;;;;;;;;98.25;75.00;;;;;;;;5069586;28;8849;-67
2021/01/30 02:07:43;;;;;;;;;97.25;77.25;;;;;;;;5069542;28;8844;-68
2021/01/30 02:10:10;;;;;;;;;100.50;74.00;;;;;;;;5070497;28;8851;-68
2021/01/30 02:12:36;;;;;;;;;105.00;83.25;;;;;;;;5073430;28;8840;-68
2021/01/30 02:15:03;;;;;;;;;101.25;79.50;;;;;;;;5073671;28;8832;-68
2021/01/30 02:17:33;;;;;;;;;97.50;77.75;;;;;;;;5069817;28;9664;-68
2021/01/30 02:20:14;;;;;;;;;102.75;82.00;;;;;;;;5069637;28;8841;-68
2021/01/30 02:23:01;;;;;;;;;102.00;78.00;;;;;;;;5070940;28;8824;-68
2021/01/30 02:25:44;;;;;;;;;100.00;81.00;;;;;;;;5043573;28;8821;-69
2021/01/30 02:28:17;;;;;;;;;103.50;80.50;;;;;;;;5044409;28;8837;-68
2021/01/30 02:31:17;;;;;;;;;104.50;82.00;;;;;;;;5072833;28;8945;-68
2021/01/30 02:34:03;;;;;;;;;101.75;77.50;;;;;;;;5018751;28;9640;-68
2021/01/30 02:36:36;;;;;;;;;98.50;74.50;;;;;;;;5015564;28;8912;-69
2021/01/30 02:39:07;;;;;;;;;92.50;73.25;;;;;;;;5049934;28;8949;-68
2021/01/30 02:41:34;;;;;;;;;88.25;67.75;;;;;;;;5069595;28;8870;-68
2021/01/30 02:44:03;;;;;;;;;95.25;74.00;;;;;;;;5072995;28;8860;-68
2021/01/30 02:46:31;;;;;;;;;87.25;71.00;;;;;;;;5068914;28;8828;-68
2021/01/30 02:49:00;;;;;;;;;96.00;75.25;;;;;;;;5068632;28;9560;-68
2021/01/30 02:51:28;;;;;;;;;89.00;70.00;;;;;;;;5072678;28;8997;-68
2021/01/30 02:53:56;;;;;;;;;92.50;71.50;;;;;;;;5072455;28;8833;-68
2021/01/30 02:56:23;;;;;;;;;95.50;71.00;;;;;;;;5072830;28;8974;-68
2021/01/30 02:58:51;;;;;;;;;98.75;74.50;;;;;;;;5072292;28;8847;-68
2021/01/30 03:01:17;;;;;;;;;92.75;73.75;;;;;;;;5072545;28;8839;-68
2021/01/30 03:03:43;;;;;;;;;87.75;70.75;;;;;;;;5072460;28;8823;-69
2021/01/30 03:06:14;;;;;;;;;93.50;70.00;;;;;;;;5072390;28;8851;-68
2021/01/30 03:08:42;;;;;;;;;87.00;68.50;;;;;;;;5072384;28;8837;-68
2021/01/30 03:11:13;;;;;;;;;96.25;68.25;;;;;;;;5072216;28;8900;-68
2021/01/30 03:13:46;;;;;;;;;85.75;68.75;;;;;;;;5072410;28;8824;-68
2021/01/30 03:16:13;;;;;;;;;91.75;70.50;;;;;;;;5072345;28;8851;-68
2021/01/30 03:18:44;;;;;;;;;93.25;71.50;;;;;;;;5072412;28;9014;-68
2021/01/30 03:21:12;;;;;;;;;89.25;67.50;;;;;;;;5071675;28;8864;-68
2021/01/30 03:23:38;;;;;;;;;87.75;69.00;;;;;;;;5072333;28;8953;-68
2021/01/30 03:26:06;;;;;;;;;89.25;70.00;;;;;;;;5071772;28;8862;-68
2021/01/30 03:28:33;;;;;;;;;91.25;72.50;;;;;;;;5072142;28;8867;-67
2021/01/30 03:31:00;;;;;;;;;86.50;67.25;;;;;;;;5072005;28;9039;-67
2021/01/30 03:33:26;;;;;;;;;88.00;67.00;;;;;;;;5072091;28;8824;-67
2021/01/30 03:35:53;;;;;;;;;85.50;67.25;;;;;;;;5071716;28;8830;-69
2021/01/30 03:38:18;;;;;;;;;87.25;63.75;;;;;;;;5072060;28;8839;-67
2021/01/30 03:40:44;;;;;;;;;87.75;68.50;;;;;;;;5071445;28;9576;-68
2021/01/30 03:43:11;;;;;;;;;86.50;68.75;;;;;;;;5071840;28;8839;-67
2021/01/30 03:45:37;;;;;;;;;88.75;69.25;;;;;;;;5071920;28;9687;-68
2021/01/30 03:48:04;;;;;;;;;89.00;69.25;;;;;;;;5071250;28;8846;-67
2021/01/30 03:50:30;;;;;;;;;91.00;69.00;;;;;;;;5071810;28;8809;-69
2021/01/30 03:52:56;;;;;;;;;86.00;67.00;;;;;;;;5067492;28;9725;-69
2021/01/30 03:55:22;;;;;;;;;95.50;67.50;;;;;;;;5071707;28;8830;-69
2021/01/30 03:57:49;;;;;;;;;89.75;70.75;;;;;;;;5071254;28;8947;-68
2021/01/30 04:00:17;;;;;;;;;90.00;69.50;;;;;;;;5071664;28;8850;-68
2021/01/30 04:02:44;;;;;;;;;88.50;69.25;;;;;;;;5071168;28;8847;-68
2021/01/30 04:05:11;;;;;;;;;85.75;66.25;;;;;;;;5071590;28;8828;-68
2021/01/30 04:07:37;;;;;;;;;85.25;65.75;;;;;;;;5071242;28;8939;-68
2021/01/30 04:10:04;;;;;;;;;88.50;70.50;;;;;;;;5071145;28;8835;-69
2021/01/30 04:12:30;;;;;;;;;85.00;67.00;;;;;;;;5071285;28;8943;-68
2021/01/30 04:14:55;;;;;;;;;87.00;67.25;;;;;;;;5067154;28;8844;-68
2021/01/30 04:17:21;;;;;;;;;88.50;67.50;;;;;;;;5071085;28;8847;-69
2021/01/30 04:19:48;;;;;;;;;85.00;66.00;;;;;;;;5070956;28;8922;-68
2021/01/30 04:22:14;;;;;;;;;73.00;61.25;;;;;;;;5071079;28;8882;-68
2021/01/30 04:24:44;;;;;;;;;78.75;62.25;;;;;;;;5070967;28;8848;-68
2021/01/30 04:27:10;;;;;;;;;81.00;61.25;;;;;;;;5071047;28;8869;-68
2021/01/30 04:29:36;;;;;;;;;76.25;56.25;;;;;;;;5070751;28;8836;-68
2021/01/30 04:32:02;;;;;;;;;75.50;59.25;;;;;;;;5070651;28;8866;-68
2021/01/30 04:34:27;;;;;;;;;78.75;60.00;;;;;;;;5070306;28;8871;-68
2021/01/30 04:36:54;;;;;;;;;71.50;58.75;;;;;;;;5070516;28;8827;-67
2021/01/30 04:39:20;;;;;;;;;77.50;62.00;;;;;;;;5070724;28;8858;-67
2021/01/30 04:41:50;;;;;;;;;74.25;60.75;;;;;;;;5070598;28;8825;-68
2021/01/30 04:44:20;;;;;;;;;77.50;60.00;;;;;;;;5070576;28;8842;-67
2021/01/30 04:46:51;;;;;;;;;74.25;59.75;;;;;;;;5070278;28;8882;-68
2021/01/30 04:49:22;;;;;;;;;72.00;56.25;;;;;;;;5070106;28;8843;-68
2021/01/30 04:51:54;;;;;;;;;73.75;57.75;;;;;;;;5070243;28;8967;-69
2021/01/30 04:54:29;;;;;;;;;76.75;62.00;;;;;;;;5070355;28;8905;-69
2021/01/30 04:57:04;;;;;;;;;81.00;64.50;;;;;;;;5066348;28;8816;-69
2021/01/30 04:59:35;;;;;;;;;68.25;56.75;;;;;;;;5066936;28;8916;-69
2021/01/30 05:02:03;;;;;;;;;82.50;65.25;;;;;;;;5070065;28;8959;-69
2021/01/30 05:04:31;;;;;;;;;76.00;60.00;;;;;;;;5070225;28;9560;-69
2021/01/30 05:07:02;;;;;;;;;71.00;58.00;;;;;;;;5070014;28;9713;-69
2021/01/30 05:09:32;;;;;;;;;77.00;59.00;;;;;;;;5066699;28;8951;-69
2021/01/30 05:12:01;;;;;;;;;73.50;60.00;;;;;;;;5066303;28;8829;-69
2021/01/30 05:14:30;;;;;;;;;70.50;59.25;;;;;;;;5066534;28;8935;-69
2021/01/30 05:16:59;;;;;;;;;69.00;51.75;;;;;;;;5066277;28;8863;-69
2021/01/30 05:19:26;;;;;;;;;74.50;57.25;;;;;;;;5066178;28;8862;-69
2021/01/30 05:21:54;;;;;;;;;60.50;50.75;;;;;;;;5069797;28;8933;-69
2021/01/30 05:24:20;;;;;;;;;69.00;55.75;;;;;;;;5070048;28;8998;-69
2021/01/30 05:26:56;;;;;;;;;69.25;55.25;;;;;;;;5069677;28;8843;-68
2021/01/30 05:29:25;;;;;;;;;70.00;56.50;;;;;;;;5069943;28;8839;-67
2021/01/30 05:31:54;;;;;;;;;76.75;58.25;;;;;;;;5069622;28;8849;-68
2021/01/30 05:34:25;;;;;;;;;69.50;57.25;;;;;;;;5069670;28;9536;-68
2021/01/30 05:36:54;;;;;;;;;74.25;56.50;;;;;;;;5069669;28;9559;-68
2021/01/30 05:39:33;;;;;;;;;75.25;57.75;;;;;;;;5069778;28;8943;-68
2021/01/30 05:42:07;;;;;;;;;68.25;55.25;;;;;;;;5066242;28;8871;-68
2021/01/30 05:44:38;;;;;;;;;67.75;54.00;;;;;;;;5069583;28;9016;-68
2021/01/30 05:47:04;;;;;;;;;72.00;58.00;;;;;;;;5069530;28;8835;-68
2021/01/30 05:49:33;;;;;;;;;68.00;54.00;;;;;;;;5069381;28;8965;-68
2021/01/30 05:52:03;;;;;;;;;59.25;51.50;;;;;;;;5069715;28;9568;-69
2021/01/30 05:54:29;;;;;;;;;72.50;55.75;;;;;;;;5069366;28;8934;-68
2021/01/30 05:56:55;;;;;;;;;70.75;56.25;;;;;;;;5069512;28;8859;-68
2021/01/30 05:59:26;;;;;;;;;74.25;58.00;;;;;;;;5069645;28;8827;-68
2021/01/30 06:02:08;;;;;;;;;73.75;57.00;;;;;;;;5069366;28;9060;-68
2021/01/30 06:04:34;;;;;;;;;73.75;58.00;;;;;;;;5067060;28;8864;-69
2021/01/30 06:07:00;;;;;;;;;72.50;58.75;;;;;;;;5069400;28;9081;-68
2021/01/30 06:09:31;;;;;;;;;72.50;57.00;;;;;;;;5069500;28;9000;-69
2021/01/30 06:11:57;;;;;;;;;75.50;60.75;;;;;;;;5066018;28;8991;-69
2021/01/30 06:14:30;;;;;;;;;75.00;57.00;;;;;;;;5065522;28;8925;-69
2021/01/30 06:16:59;;;;;;;;;65.50;52.75;;;;;;;;5065776;28;8975;-69
2021/01/30 06:22:09;;;;;;;;;75.25;59.50;;;;;;;;5115625;27;13605;-68
2021/01/30 06:51:00;;;;;;;;;69.25;54.75;;;;;;;;5115573;27;13372;-68
2021/01/30 06:53:27;;;;;;;;;73.50;55.25;;;;;;;;5096018;28;10928;-68
2021/01/30 07:00:24;;;;;;;;;68.75;51.50;;;;;;;;5114996;27;13598;-69
2021/01/30 07:02:52;;;;;;;;;59.50;50.00;;;;;;;;5100751;28;8857;-68
2021/01/30 07:05:23;;;;;;;;;65.00;53.25;;;;;;;;5098438;28;8967;-68
2021/01/30 21:03:01;;;;;;;;;39.50;34.50;;;;;;;;5111476;27;13471;-71
2021/01/30 21:05:27;;;;;;;;;32.40;28.60;;;;;;;;5019891;27;13756;-69
2021/01/30 21:07:53;;;;;;;;;45.00;31.00;;;;;;;;5048519;28;13755;-71
2021/01/30 21:10:19;;;;;;;;;39.00;33.25;;;;;;;;5043234;28;13663;-70
2021/01/30 21:12:45;;;;;;;;;38.80;32.80;;;;;;;;5049319;28;13657;-68
2021/01/30 21:15:12;;;;;;;;;34.00;32.00;;;;;;;;5050730;28;13646;-69
2021/01/30 21:17:38;;;;;;;;;32.00;29.75;;;;;;;;5050920;28;13599;-70
2021/01/30 21:20:05;;;;;;;;;42.00;34.50;;;;;;;;5048118;28;13724;-68
2021/01/30 21:22:33;;;;;;;;;36.40;33.20;;;;;;;;5047223;28;14409;-71
2021/01/30 21:25:00;;;;;;;;;31.25;29.00;;;;;;;;5005481;28;14287;-70
2021/01/30 21:27:26;;;;;;;;;31.50;28.00;;;;;;;;5046768;28;13642;-68
2021/01/30 21:29:54;;;;;;;;;26.75;23.75;;;;;;;;5038465;28;13672;-71
2021/01/30 21:32:20;;;;;;;;;26.80;25.60;;;;;;;;5041288;28;13657;-68
2021/01/30 21:34:46;;;;;;;;;30.60;29.00;;;;;;;;5046265;28;13771;-69
2021/01/30 21:37:13;;;;;;;;;30.00;29.00;;;;;;;;5030077;28;14471;-66
2021/01/30 21:39:39;;;;;;;;;34.00;28.50;;;;;;;;5049548;28;13750;-68
2021/01/30 21:42:05;;;;;;;;;30.25;29.75;;;;;;;;5040875;28;13728;-69
2021/01/30 21:44:31;;;;;;;;;28.00;26.00;;;;;;;;5040116;28;13818;-67
2021/01/30 21:46:57;;;;;;;;;23.75;23.75;;;;;;;;5040566;28;13623;-69
2021/01/30 21:49:23;;;;;;;;;16.67;16.67;;;;;;;;5044656;28;13675;-69
2021/01/30 21:51:49;;;;;;;;;18.00;15.00;;;;;;;;5046901;28;13671;-66
2021/01/30 21:54:16;;;;;;;;;13.00;11.25;;;;;;;;5039848;28;13622;-67
2021/01/30 21:56:42;;;;;;;;;13.25;9.25;;;;;;;;5044984;28;14396;-67
2021/01/30 21:59:08;;;;;;;;;13.80;10.80;;;;;;;;5039309;28;13895;-65
2021/01/30 22:01:35;;;;;;;;;12.00;9.75;;;;;;;;5044253;28;13709;-66
2021/01/30 22:04:01;;;;;;;;;12.75;12.00;;;;;;;;5043715;28;13581;-67
2021/01/30 22:06:27;;;;;;;;;13.25;10.75;;;;;;;;4975137;28;13589;-65
2021/01/30 22:08:52;;;;;;;;;11.20;8.20;;;;;;;;5048442;28;13697;-65
2021/01/30 22:11:19;;;;;;;;;13.60;10.00;;;;;;;;5040106;28;13671;-64
2021/01/30 22:13:45;;;;;;;;;12.00;10.75;;;;;;;;5032069;28;13706;-67
2021/01/30 22:16:11;;;;;;;;;10.20;9.60;;;;;;;;5024592;28;13748;-65
2021/01/30 22:18:37;;;;;;;;;9.80;8.40;;;;;;;;5030672;28;14231;-65
2021/01/30 22:21:03;;;;;;;;;11.00;9.67;;;;;;;;5030293;28;13755;-64
2021/01/30 22:23:29;;;;;;;;;11.00;8.50;;;;;;;;5027758;28;14582;-66
2021/01/30 22:25:55;;;;;;;;;9.50;9.50;;;;;;;;5028031;28;13637;-66
2021/01/30 22:28:22;;;;;;;;;7.75;7.75;;;;;;;;5024856;28;13715;-66
2021/01/30 22:30:48;;;;;;;;;10.25;9.25;;;;;;;;5026521;28;13719;-67
2021/01/30 22:33:14;;;;;;;;;9.80;9.00;;;;;;;;5025309;28;13735;-67
2021/01/30 22:35:40;;;;;;;;;10.80;8.80;;;;;;;;5026374;28;13755;-65
2021/01/30 22:38:06;;;;;;;;;8.80;8.00;;;;;;;;5025990;28;14460;-65
2021/01/30 22:40:32;;;;;;;;;9.00;9.00;;;;;;;;5025566;28;13629;-65
2021/01/30 22:42:58;;;;;;;;;5.40;5.40;;;;;;;;5025951;28;13501;-66
2021/01/30 22:45:25;;;;;;;;;8.25;6.00;;;;;;;;5024309;28;13958;-66
2021/01/30 22:47:51;;;;;;;;;8.00;7.25;;;;;;;;5026164;28;14416;-67
2021/01/30 22:50:18;;;;;;;;;8.20;6.20;;;;;;;;5026046;28;13533;-66
2021/01/30 22:52:44;;;;;;;;;9.00;7.60;;;;;;;;5027365;28;15110;-65
2021/01/30 22:55:12;;;;;;;;;6.00;6.00;;;;;;;;5027667;28;13526;-65
2021/01/30 22:57:38;;;;;;;;;7.00;4.75;;;;;;;;5026694;28;13501;-65
2021/01/30 23:00:15;;;;;;;;;5.40;5.40;;;;;;;;5025133;28;13546;-65
2021/01/30 23:02:42;;;;;;;;;7.00;4.50;;;;;;;;5025153;28;13545;-65
2021/01/30 23:05:09;;;;;;;;;6.75;6.75;;;;;;;;5026710;28;13728;-65
2021/01/30 23:07:35;;;;;;;;;4.00;4.00;;;;;;;;5027374;28;13531;-66
2021/01/30 23:10:03;;;;;;;;;6.00;6.00;;;;;;;;5027031;28;13689;-65
2021/01/30 23:12:29;;;;;;;;;5.00;5.00;;;;;;;;5026961;28;13537;-65
2021/01/30 23:14:55;;;;;;;;;5.25;5.25;;;;;;;;5027735;28;13607;-65
2021/01/30 23:17:21;;;;;;;;;7.00;5.00;;;;;;;;5028135;28;13510;-66
2021/01/30 23:20:34;;;;;;;;;7.60;6.20;;;;;;;;5116628;27;13530;-67
2021/01/30 23:23:00;;;;;;;;;5.40;5.40;;;;;;;;5093693;28;14309;-68
2021/01/30 23:25:27;;;;;;;;;6.00;5.00;;;;;;;;5093452;28;13549;-66
2021/01/30 23:27:55;;;;;;;;;3.75;3.75;;;;;;;;5092696;28;14611;-67
2021/01/30 23:30:22;;;;;;;;;5.50;4.50;;;;;;;;5093431;28;13589;-68
2021/01/30 23:32:48;;;;;;;;;6.25;6.25;;;;;;;;5094837;28;13683;-67
2021/01/30 23:35:14;;;;;;;;;6.00;5.50;;;;;;;;5092301;28;13665;-67
2021/01/30 23:37:41;;;;;;;;;5.00;5.00;;;;;;;;5096036;28;13617;-67
2021/01/30 23:40:08;;;;;;;;;2.00;2.00;;;;;;;;5088395;28;13586;-67
2021/01/30 23:42:34;;;;;;;;;;;;;;;;;;5094965;28;13336;-67
2021/01/30 23:45:00;;;;;;;;;0.00;0.00;;;;;;;;5086477;28;13374;-67
2021/01/30 23:47:26;;;;;;;;;2.00;0.80;;;;;;;;5094249;28;14220;-67
2021/01/30 23:49:52;;;;;;;;;2.00;0.00;;;;;;;;5092041;28;13518;-67
2021/01/30 23:52:17;;;;;;;;;1.00;1.00;;;;;;;;5095030;28;13436;-67
2021/01/30 23:54:44;;;;;;;;;1.00;1.00;;;;;;;;5092697;28;14309;-67
2021/01/30 23:57:10;;;;;;;;;1.00;0.00;;;;;;;;5095786;28;13563;-67
2021/01/30 23:59:36;;;;;;;;;0.00;0.00;;;;;;;;5092461;28;13480;-66
